Elizabeth Mc Allister — WDB7652 — position and weather

sailwx.info

Track history (hours):
 
Tides and Currents Weather Stations Pressure Air Temp Water Temp Dewpoint Dewpoint Depression Visibility Wind Speed Wind Dir Waves Ship Positions

Elizabeth Mc Allister

Owner: MC ALLISTER TOWING & TRANSPORTATION INC, NEW YORK, NY. More information available from US FCC via Universal Licensing System and Coast Guard Vessel Documentation Center.

Last reported at 2018-Aug-14 17:24 UTC. Time now 2018-Aug-21 04:21 UTC.
Position N 40°39' W 074°10'.

Length 31 m.

Type: Tug. MMSI: 362751376.

Date/timePositionNaut miles runAvg speedWind from/ knotsBaromVisibWave heightAir tempDewpointWater temp
2018-Aug-14 17:24N 40°39' W 074°10'2 1.2
2018-Aug-14 15:23N 40°37' W 074°12'2 5.0
2018-Aug-14 15:01N 40°39' W 074°11'3 5.5
2018-Aug-14 14:30N 40°39' W 074°08'3 6.6
2018-Aug-14 14:00N 40°38' W 074°03'2 3.9
2018-Aug-14 13:30N 40°39' W 074°06'3 6.0
2018-Aug-14 13:00N 40°38' W 074°10'0 0.0
2018-Aug-14 12:30N 40°38' W 074°10'0 0.0
2018-Aug-14 12:00N 40°38' W 074°10'0 0.0
2018-Aug-14 11:30N 40°38' W 074°10'0 0.0
2018-Aug-14 11:00N 40°38' W 074°10'0 0.0
2018-Aug-14 10:31N 40°38' W 074°10'2 2.7
2018-Aug-14 09:46N 40°40' W 074°08'1 5.3
2018-Aug-14 09:30N 40°39' W 074°09'3 5.5
2018-Aug-14 09:00N 40°39' W 074°05'0 0.3
2018-Aug-14 08:30N 40°39' W 074°06'3 6.5
2018-Aug-14 08:00N 40°38' W 074°10'0 0.0
2018-Aug-13 16:10N 40°38' W 074°10'1 5.4
2018-Aug-13 15:58N 40°39' W 074°11'1 1.9
2018-Aug-13 15:28N 40°38' W 074°12'0 0.0
2018-Aug-13 14:59N 40°38' W 074°12'0 0.0
2018-Aug-13 14:30N 40°38' W 074°12'1 1.7
2018-Aug-13 13:59N 40°39' W 074°11'1 2.3
2018-Aug-13 13:30N 40°39' W 074°10'0 0.1
2018-Aug-13 13:00N 40°38' W 074°10'0 0.0
2018-Aug-13 12:30N 40°38' W 074°10'0 0.0
2018-Aug-13 12:00N 40°38' W 074°10'1 2.4
2018-Aug-13 11:30N 40°39' W 074°09'1 2.0
2018-Aug-13 11:00N 40°40' W 074°08'1 1.0
2018-Aug-13 10:30N 40°41' W 074°09'0 0.8
2018-Aug-13 10:00N 40°41' W 074°08'2 4.0
2018-Aug-13 09:30N 40°39' W 074°09'0 0.1
2018-Aug-13 09:00N 40°39' W 074°09'3 6.3
2018-Aug-13 08:30N 40°39' W 074°05'4 8.0
2018-Aug-13 08:00N 40°39' W 074°10'  
2018-Aug-07 11:14N 40°38' W 074°10'0 0.0
2018-Aug-07 10:56N 40°38' W 074°10'3 6.9
2018-Aug-07 10:30N 40°41' W 074°08'1 1.0
2018-Aug-07 09:55N 40°41' W 074°08'3 7.0
2018-Aug-07 09:30N 40°39' W 074°09'1 1.9
2018-Aug-07 09:00N 40°39' W 074°08'2 3.5
2018-Aug-07 08:30N 40°39' W 074°06'  
Track history (hours):
 
Tides and Currents Weather Stations Pressure Air Temp Water Temp Dewpoint Dewpoint Depression Visibility Wind Speed Wind Dir Waves Ship Positions

Elizabeth Mc Allister

Owner: MC ALLISTER TOWING & TRANSPORTATION INC, NEW YORK, NY. More information available from US FCC via Universal Licensing System and Coast Guard Vessel Documentation Center.

Last reported at 2018-Aug-14 17:24 UTC. Time now 2018-Aug-21 04:21 UTC.
Position N 40°39' W 074°10'.

Length 31 m.

Type: Tug. MMSI: 362751376.

Date/timePositionNaut miles runAvg speedWind from/ knotsBaromVisibWave heightAir tempDewpointWater temp
2018-Aug-14 17:24N 40°39' W 074°10'2 1.2
2018-Aug-14 15:23N 40°37' W 074°12'2 5.0
2018-Aug-14 15:01N 40°39' W 074°11'3 5.5
2018-Aug-14 14:30N 40°39' W 074°08'3 6.6
2018-Aug-14 14:00N 40°38' W 074°03'2 3.9
2018-Aug-14 13:30N 40°39' W 074°06'3 6.0
2018-Aug-14 13:00N 40°38' W 074°10'0 0.0
2018-Aug-14 12:30N 40°38' W 074°10'0 0.0
2018-Aug-14 12:00N 40°38' W 074°10'0 0.0
2018-Aug-14 11:30N 40°38' W 074°10'0 0.0
2018-Aug-14 11:00N 40°38' W 074°10'0 0.0
2018-Aug-14 10:31N 40°38' W 074°10'2 2.7
2018-Aug-14 09:46N 40°40' W 074°08'1 5.3
2018-Aug-14 09:30N 40°39' W 074°09'3 5.5
2018-Aug-14 09:00N 40°39' W 074°05'0 0.3
2018-Aug-14 08:30N 40°39' W 074°06'3 6.5
2018-Aug-14 08:00N 40°38' W 074°10'0 0.0
2018-Aug-13 16:10N 40°38' W 074°10'1 5.4
2018-Aug-13 15:58N 40°39' W 074°11'1 1.9
2018-Aug-13 15:28N 40°38' W 074°12'0 0.0
2018-Aug-13 14:59N 40°38' W 074°12'0 0.0
2018-Aug-13 14:30N 40°38' W 074°12'1 1.7
2018-Aug-13 13:59N 40°39' W 074°11'1 2.3
2018-Aug-13 13:30N 40°39' W 074°10'0 0.1
2018-Aug-13 13:00N 40°38' W 074°10'0 0.0
2018-Aug-13 12:30N 40°38' W 074°10'0 0.0
2018-Aug-13 12:00N 40°38' W 074°10'1 2.4
2018-Aug-13 11:30N 40°39' W 074°09'1 2.0
2018-Aug-13 11:00N 40°40' W 074°08'1 1.0
2018-Aug-13 10:30N 40°41' W 074°09'0 0.8
2018-Aug-13 10:00N 40°41' W 074°08'2 4.0
2018-Aug-13 09:30N 40°39' W 074°09'0 0.1
2018-Aug-13 09:00N 40°39' W 074°09'3 6.3
2018-Aug-13 08:30N 40°39' W 074°05'4 8.0
2018-Aug-13 08:00N 40°39' W 074°10'  
2018-Aug-07 11:14N 40°38' W 074°10'0 0.0
2018-Aug-07 10:56N 40°38' W 074°10'3 6.9
2018-Aug-07 10:30N 40°41' W 074°08'1 1.0
2018-Aug-07 09:55N 40°41' W 074°08'3 7.0
2018-Aug-07 09:30N 40°39' W 074°09'1 1.9
2018-Aug-07 09:00N 40°39' W 074°08'2 3.5
2018-Aug-07 08:30N 40°39' W 074°06'  

Dump ship's entire track history